Flight Track Log - Related Links

Times and Time Zones

All times are in EDT time to prevent confusion due to time zone crossing. See the ASQ5958 flight status page for this flight to view local times or setup timezone preferences in your user account.

Time Position Orientation Groundspeed Altitude Reporting Facility
EDT Latitude Longitude Course Direction KTS MPH feet Rate Location/Type
Sun 06:30:30 PM 41.9364 -87.8075 173° South 191 220 4,800  Level Chicago Center
Sun 06:30:57 PM 41.9000 -87.8000 171° South 230 265 5,700 2,000 Climbing Chicago TRACON
Sun 06:31:57 PM 41.8333 -87.8500 209° Southwest 277 319 7,700 1,918 Climbing Chicago TRACON
Sun 06:32:34 PM 41.8067 -87.8761 216° Southwest 269 310 8,800 1,879 Climbing Chicago Center
Sun 06:33:36 PM 41.7422 -87.8425 159° South 267 307 10,800 1,839 Climbing Chicago Center
Sun 06:34:38 PM 41.6753 -87.7842 147° Southeast 284 327 12,600 1,742 Climbing Chicago Center
Sun 06:35:00 PM 41.4558 -87.5416 159° South  Level Estimated
Sun 06:35:40 PM 41.6072 -87.7258 147° Southeast 290 334 14,400  Level Chicago Center
Sun 06:36:00 PM 41.3681 -87.4813 173° South  Level Estimated
Sun 06:37:00 PM 41.5001 -87.6133 156° South  Level FlightAware Approximate
Sun 06:37:44 PM 41.4369 -87.5822 156° South 335 386 16,300  Level Chicago Center
Sun 06:38:46 PM 41.3358 -87.5569 169° South 371 427 17,200 919 Climbing Chicago Center
Sun 06:39:48 PM 41.2319 -87.5392 173° South 374 430 18,200 968 Climbing Chicago Center
Sun 06:40:50 PM 41.1267 -87.5142 170° South 383 441 19,200 968 Climbing Chicago Center
Sun 06:41:52 PM 41.0225 -87.4844 168° South 383 441 20,200 1,056 Climbing Chicago Center
Sun 06:42:55 PM 40.8919 -87.4492 168° South 395 455 21,400 1,056 Climbing Chicago Center
Sun 06:43:57 PM 40.7844 -87.4194 168° South 396 456 22,400 952 Climbing Chicago Center
Sun 06:45:01 PM 40.6742 -87.3922 169° South 402 463 23,400 1,016 Climbing Chicago Center
Sun 06:46:01 PM 40.5733 -87.3436 160° South 396 456 24,500 1,033 Climbing Chicago Center
Sun 06:47:03 PM 40.4831 -87.2692 148° Southeast 388 447 25,500 1,210 Climbing Chicago Center
Sun 06:48:05 PM 40.3778 -87.1883 150° Southeast 381 438 27,000 1,355 Climbing Chicago Center
Sun 06:49:07 PM 40.2917 -87.1200 149° Southeast 368 423 28,300 1,258 Climbing Chicago Center
Sun 06:50:09 PM 40.2058 -87.0528 149° Southeast 362 417 29,600 1,258 Climbing Chicago Center
Sun 06:51:11 PM 40.1225 -86.9856 148° Southeast 356 410 30,900 778 Climbing Chicago Center
Sun 06:51:57 PM 40.0528 -86.9314 149° Southeast 359 413 31,000 56 Climbing Indianapolis Center
Sun 06:52:59 PM 39.9611 -86.8592 149° Southeast 382 440 31,000  Level Indianapolis Center
Sun 06:54:01 PM 39.8642 -86.7842 149° Southeast 402 463 31,000  Level Indianapolis Center
Sun 06:55:03 PM 39.7483 -86.6936 149° Southeast 408 470 31,000  Level Indianapolis Center
Sun 06:56:05 PM 39.6528 -86.6206 150° Southeast 405 466 31,000  Level Indianapolis Center
Sun 06:57:08 PM 39.5569 -86.5464 149° Southeast 408 470 31,000  Level Indianapolis Center
Sun 06:58:09 PM 39.4608 -86.4725 149° Southeast 408 470 31,000  Level Indianapolis Center
Sun 06:59:11 PM 39.3453 -86.3844 149° Southeast 407 468 31,000  Level Indianapolis Center
Sun 07:00:12 PM 39.2492 -86.3106 149° Southeast 406 467 31,000  Level Indianapolis Center
Sun 07:02:16 PM 39.0561 -86.1650 150° Southeast 402 463 31,000  Level Indianapolis Center
Sun 07:03:18 PM 38.9608 -86.0925 149° Southeast 401 461 31,000  Level Indianapolis Center
Sun 07:04:20 PM 38.8633 -86.0178 149° Southeast 400 460 31,000  Level Indianapolis Center
Sun 07:06:24 PM 38.6558 -85.8636 150° Southeast 398 458 31,000  Level Indianapolis Center
Sun 07:07:26 PM 38.5569 -85.7892 150° Southeast 392 451 31,000  Level Indianapolis Center
Sun 07:08:27 PM 38.4625 -85.7192 150° Southeast 389 448 31,000  Level Indianapolis Center
Sun 07:10:00 PM 38.3346 -85.6186 148° Southeast  Level FlightAware Approximate
Sun 07:10:31 PM 38.2761 -85.5811 148° Southeast 382 440 31,000  Level Indianapolis Center
Sun 07:11:33 PM 38.1833 -85.5131 150° Southeast 381 438 31,000  Level Indianapolis Center
Sun 07:12:35 PM 38.0908 -85.4447 150° Southeast 381 438 31,000  Level Indianapolis Center
Sun 07:13:37 PM 37.9978 -85.3769 150° Southeast 383 441 31,000  Level Indianapolis Center
Sun 07:14:39 PM 37.9050 -85.3097 150° Southeast 383 441 31,000  Level Indianapolis Center
Sun 07:15:40 PM 37.7964 -85.2292 150° Southeast 380 437 31,000  Level Indianapolis Center
Sun 07:17:00 PM 37.6949 -85.1281 142° Southeast  Level FlightAware Approximate
Sun 07:17:44 PM 37.6094 -85.0944 142° Southeast 386 444 31,000  Level Indianapolis Center
Sun 07:18:46 PM 37.5153 -85.0269 150° Southeast 387 445 30,100 -1,210 Descending Indianapolis Center
Sun 07:19:48 PM 37.4208 -84.9589 150° Southeast 390 449 28,500 -1,707 Descending Indianapolis Center
Sun 07:20:49 PM 37.3125 -84.8794 150° Southeast 387 445 26,600 -1,707 Descending Indianapolis Center
Sun 07:21:51 PM 37.2169 -84.8117 151° Southeast 391 450 25,000 -1,548 Descending Indianapolis Center
Sun 07:22:53 PM 37.1214 -84.7442 151° Southeast 393 452 23,400 -1,548 Descending Indianapolis Center
Sun 07:23:55 PM 37.0353 -84.6825 150° Southeast 378 435 21,800 -1,854 Descending Indianapolis Center
Sun 07:24:56 PM 36.9536 -84.6258 151° Southeast 342 394 19,600 -2,098 Descending Indianapolis Center
Sun 07:25:58 PM 36.8758 -84.5697 150° Southeast 324 373 17,500 -2,032 Descending Indianapolis Center
Sun 07:27:00 PM 36.7742 -84.4989 151° Southeast 342 394 15,400 -1,597 Descending Indianapolis Center
Sun 07:28:02 PM 36.6925 -84.4414 151° Southeast 339 390 14,200 -1,073 Descending Indianapolis Center
Sun 07:29:03 PM 36.6128 -84.3856 151° Southeast 330 380 13,200 -976 Descending Indianapolis Center
Sun 07:30:05 PM 36.5350 -84.3303 150° Southeast 324 373 12,200 -1,024 Descending Indianapolis Center
Sun 07:31:06 PM 36.4533 -84.2747 151° Southeast 330 380 11,100 -585 Descending Indianapolis Center
Sun 07:32:08 PM 36.3808 -84.2236 150° Southeast 305 351 11,000 -54 Descending Indianapolis Center
Sun 07:32:57 PM 36.3231 -84.1856 152° Southeast 306 352 11,000 -165 Level Atlanta Center
Sun 07:33:57 PM 36.2500 -84.1367 152° Southeast 299 344 10,700 -893 Descending Atlanta Center
Sun 07:34:58 PM 36.1833 -84.1236 171° South 278 320 9,200 -1,650 Descending Atlanta Center
Sun 07:35:57 PM 36.1167 -84.1389 190° South 249 287 7,400 -1,800 Descending Atlanta Center
Sun 07:36:58 PM 36.0583 -84.1236 168° South 235 270 5,600 -1,650 Descending Atlanta Center
Sun 07:37:57 PM 35.9958 -84.1056 167° South 222 255 4,100 -756 Descending Atlanta Center
Sun 07:38:57 PM 35.9331 -84.1081 182° South 227 261 4,100 -50 Level Atlanta Center
Sun 07:39:57 PM 35.8767 -84.1489 210° Southwest 227 261 4,000 -150 Descending Atlanta Center
Sun 07:40:57 PM 35.8225 -84.1872 210° Southwest 232 267 3,800 -200 Descending Atlanta Center
Sun 07:42:00 PM 35.8151 -84.0633 153° Southeast  Level Estimated
Sun 07:49:00 PM 35.8110 -83.9940 153° Southeast  Level Estimated
Sun 07:50:00 PM 35.8110 -83.9940 153° Southeast  Level Estimated
Sun 07:51:00 PM 35.8110 -83.9940 153° Southeast  Level Estimated
Sun 07:52:00 PM 35.8110 -83.9940 153° Southeast  Level Estimated

Login

Don't have an account? Register now (free) for customized features, flight alerts, and more!